Terminal Aerodrome Forecast
Issued by NWS Wakefield, VA

Home | Current Version | Previous Version | Text Only | Print | Product List | Glossary On
Versions: 1 2 3 4 5 6 7 8 9 10 11 12 13
533
FTUS41 KAKQ 212340
TAFRIC
TAF
KRIC 212340Z 2200/2224 15003KT P6SM SCT250
     FM221100 00000KT P6SM VCSH BKN100
     FM221400 22006KT P6SM BKN030=

USA.gov is the U.S. government's official web portal to all federal, state and local government web resources and services.